Friday, January 19, 2018, 7:34 AM GMT
Back to Local

CWWZ, Port Weller, Ont.

Location: , , Canada Lat: 43.25
Local Time: 7:34 AM GMT ( 7:34 GMT) Lon: -79.217
Time Zone: GMT Elev: 259 ft

Show me the last for .
Show Coded

Time T Td Feel RH Dir Speed Gust Alt SLP Vis Weather Sky Remarks
2018-01-19 07:00 29 22 17 75 240° 10 17 - 29.94 0 Peak wind: 20 mph (18 kts) from 210° at 17 min
2018-01-19 06:00 29 22 16 74 230° 12 21 - 29.93 0 Peak wind: 20 mph (18 kts) from 230° at 51 min
2018-01-19 05:00 29 20 17 68 240° 10 17 - 29.95 0 None
2018-01-19 04:00 29 22 19 75 240° 12 - - 29.96 0 Peak wind: 19 mph (17 kts) from 240° at 40 min
2018-01-19 03:00 29 22 15 73 230° 13 25 - 29.95 0 Peak wind: 25 mph (22 kts) from 210° at 35 min
2018-01-19 02:00 29 19 15 66 230° 14 25 - 29.96 0 Peak wind: 25 mph (22 kts) from 220° at 57 min
2018-01-19 01:00 27 19 14 69 230° 12 21 - 29.98 0 Peak wind: 20 mph (18 kts) from 210° at 53 min
2018-01-19 00:00 26 18 13 70 230° 8 18 - 30.01 0 Peak wind: 20 mph (18 kts) from 260° at 05 min
2018-01-18 23:00 26 19 15 76 250° 10 - - 30.03 0 Peak wind: 19 mph (17 kts) from 260° at 27 min
2018-01-18 22:00 25 19 14 78 240° 10 - - 30.02 0 Peak wind: 19 mph (17 kts) from 200° at 24 min
2018-01-18 21:00 24 19 16 77 240° 8 - - 30.03 0 Peak wind: 19 mph (17 kts) from 230° at 29 min
2018-01-18 20:00 25 18 15 76 230° 9 - - 30.04 0 Peak wind: 20 mph (18 kts) from 210° at 39 min
2018-01-18 19:00 24 18 15 75 230° 9 - - 30.04 0 Peak wind: 21 mph (19 kts) from 210° at 12 min
2018-01-18 18:00 24 18 9 76 220° 13 22 - 30.05 0 Peak wind: 24 mph (21 kts) from 220° at 21 min
2018-01-18 17:00 24 17 9 75 220° 13 21 - 30.07 0 Peak wind: 21 mph (19 kts) from 230° at 47 min
2018-01-18 16:00 23 16 8 74 230° 13 21 - 30.10 0 Peak wind: 24 mph (21 kts) from 230° at 24 min
2018-01-18 15:00 22 16 6 78 220° 12 24 - 30.09 0 Peak wind: 24 mph (21 kts) from 220° at 53 min
2018-01-18 14:00 22 17 11 79 230° 10 - - 30.08 0 Peak wind: 19 mph (17 kts) from 230° at 07 min
2018-01-18 13:00 22 16 11 77 240° 10 - - 30.08 0 Peak wind: 24 mph (21 kts) from 220° at 03 min
2018-01-18 12:00 22 15 6 75 230° 13 22 - 30.07 0 Peak wind: 21 mph (19 kts) from 240° at 04 min
2018-01-18 11:00 22 16 7 78 240° 12 20 - 30.07 0 Peak wind: 24 mph (21 kts) from 230° at 06 min
2018-01-18 10:00 22 16 5 78 230° 14 23 - 30.07 0 Peak wind: 27 mph (24 kts) from 230° at 21 min
2018-01-18 09:00 21 15 5 76 230° 13 23 - 30.08 0 Peak wind: 27 mph (24 kts) from 230° at 48 min
2018-01-18 08:00 22 19 7 86 240° 12 18 - 30.09 0 Peak wind: 25 mph (22 kts) from 220° at 14 min

Support USWX by starting your Amazon purchase here.